• Join FlightAware (Why Join?)
  • Login
  • US Flag 
05:08PM EDT


 

Airport Tracker/Info


-or-


 

Live Flight TrackerFlight Track Log ✈ ASQ4151 ✈ 20-Apr-2013 ✈ KIAH - KIND

Flight Track Log - Related Links

Times and Time Zones

All times are in EDT time to prevent confusion due to time zone crossing. See the ASQ4151 flight status page for this flight to view local times or setup timezone preferences in your user account.

Time Position Orientation Groundspeed Altitude Reporting Facility
EDT Latitude Longitude Course Direction KTS MPH feet Rate Location/Type
09:44PM 29.9617 -95.3436 North 151 174 800  Level Houston Center
09:45PM 29.9800 -95.2908 68° East 244 281 3,500 2,100 Climbing Houston Center
09:46PM 30.0161 -95.2869 North 243 280 4,900 2,700 Climbing Houston Center
09:47PM 30.3130 -95.1987 14° North  Level FlightAware Approximate
09:47PM 30.1039 -95.2614 14° North 269 310 8,200  Level Houston Center
09:47PM 30.1236 -95.2539 18° North 288 331 8,900 2,400 Climbing Houston Center
09:48PM 30.4235 -95.1549 23° Northeast  Level FlightAware Approximate
09:48PM 30.1831 -95.2394 12° North 288 331 10,600  Level Houston Center
09:49PM 30.5293 -95.1000 North  Level FlightAware Approximate
09:49PM 30.2758 -95.2122 14° North 339 390 11,500  Level Houston Center
09:50PM 30.3781 -95.1836 14° North 372 428 13,500 1,860 Climbing Houston Center
09:51PM 30.4700 -95.1511 17° North 379 436 15,300 1,740 Climbing Houston Center
09:52PM 30.5653 -95.0889 29° Northeast 390 449 17,100 1,500 Climbing Houston Center
09:53PM 30.6647 -95.0286 28° Northeast 402 463 18,400 1,500 Climbing Houston Center
09:54PM 30.7869 -94.9525 28° Northeast 415 478 20,200 1,620 Climbing Houston Center
09:55PM 30.8906 -94.8872 28° Northeast 422 486 21,700 1,440 Climbing Houston Center
09:56PM 30.9989 -94.8203 28° Northeast 423 487 23,200 1,440 Climbing Fort Worth Center
09:57PM 31.1019 -94.7544 29° Northeast 425 489 24,700 1,500 Climbing Fort Worth Center
09:58PM 31.2069 -94.6858 29° Northeast 431 496 26,300 1,500 Climbing Fort Worth Center
09:59PM 31.3139 -94.6147 30° Northeast 431 496 27,800 1,380 Climbing Fort Worth Center
10:00PM 31.4083 -94.5486 31° Northeast 425 489 29,100 1,380 Climbing Fort Worth Center
10:01PM 31.5111 -94.4772 31° Northeast 430 495 30,600 1,500 Climbing Fort Worth Center
10:02PM 31.6139 -94.4056 31° Northeast 430 495 32,100 1,500 Climbing Fort Worth Center
10:03PM 31.7167 -94.3364 30° Northeast 430 495 33,600 1,380 Climbing Fort Worth Center
10:04PM 31.8169 -94.2644 31° Northeast 425 489 34,900 1,140 Climbing Fort Worth Center
10:05PM 31.9156 -94.1950 31° Northeast 414 476 35,900 960 Climbing Fort Worth Center
10:06PM 32.0092 -94.1061 39° Northeast 419 482 36,900 540 Climbing Fort Worth Center
10:07PM 32.1028 -94.0144 40° Northeast 429 494 37,000  Climbing Fort Worth Center
10:08PM 32.2083 -93.9000 43° Northeast 440 506 37,000  Level Fort Worth Center
10:09PM 32.2997 -93.8153 38° Northeast 464 534 37,000  Level Fort Worth Center
10:10PM 32.4075 -93.7125 39° Northeast 477 549 37,000  Level Fort Worth Center
10:11PM 32.5128 -93.6072 40° Northeast 485 558 37,000  Level Fort Worth Center
10:12PM 32.6183 -93.5042 39° Northeast 485 558 37,000  Level Fort Worth Center
10:13PM 32.7214 -93.4008 40° Northeast 485 558 37,000  Level Fort Worth Center
10:14PM 32.8286 -93.2972 39° Northeast 485 558 37,000  Level Fort Worth Center
10:15PM 32.9378 -93.1883 40° Northeast 490 564 37,000  Level Fort Worth Center
10:16PM 33.0428 -93.0842 40° Northeast 495 570 37,000  Level Fort Worth Center
10:18PM 33.2392 -92.8881 40° Northeast 511 588 37,000  Level Memphis Center
10:19PM 33.3458 -92.7794 40° Northeast 511 588 37,000  Level Memphis Center
10:20PM 33.4564 -92.6678 40° Northeast 511 588 37,000  Level Memphis Center
10:21PM 33.5628 -92.5611 40° Northeast 511 588 37,000  Level Memphis Center
10:22PM 33.6689 -92.4539 40° Northeast 500 575 37,000  Level Memphis Center
10:23PM 33.7731 -92.3464 41° Northeast 500 575 37,000  Level Memphis Center
10:24PM 33.8789 -92.2411 40° Northeast 494 568 37,000  Level Memphis Center
10:25PM 33.9828 -92.1333 41° Northeast 489 563 37,000  Level Memphis Center
10:26PM 34.0822 -92.0250 42° Northeast 489 563 37,000  Level Memphis Center
10:27PM 34.1881 -91.9164 40° Northeast 489 563 37,000  Level Memphis Center
10:28PM 34.2939 -91.8028 42° Northeast 495 570 37,000  Level Memphis Center
10:29PM 34.4056 -91.6914 39° Northeast 490 564 37,000  Level Memphis Center
10:30PM 34.5131 -91.5822 40° Northeast 484 557 37,000  Level Memphis Center
10:31PM 34.6122 -91.4725 42° Northeast 493 567 37,000  Level Memphis Center
10:32PM 34.7069 -91.3728 41° Northeast 488 562 37,000  Level Memphis Center
10:33PM 34.8100 -91.2653 41° Northeast 497 572 37,000  Level Memphis Center
10:34PM 34.9172 -91.1522 41° Northeast 497 572 37,000  Level Memphis Center
10:35PM 35.0222 -91.0392 41° Northeast 491 565 37,000  Level Memphis Center
10:36PM 35.1250 -90.9308 41° Northeast 491 565 37,000  Level Memphis Center
10:37PM 35.2361 -90.8094 42° Northeast 491 565 37,000  Level Memphis Center
10:38PM 35.3386 -90.6956 42° Northeast 491 565 37,000  Level Memphis Center
10:39PM 35.4411 -90.5864 41° Northeast 491 565 37,000  Level Memphis Center
10:40PM 35.5456 -90.4719 42° Northeast 496 571 37,000  Level Memphis Center
10:41PM 35.6478 -90.3622 41° Northeast 486 559 37,000  Level Memphis Center
10:42PM 35.7414 -90.2522 44° Northeast 481 554 37,000  Level Memphis Center
10:43PM 35.8436 -90.1419 41° Northeast 481 554 37,000  Level Memphis Center
10:44PM 35.9456 -90.0339 41° Northeast 481 554 37,000  Level Memphis Center
10:45PM 36.0453 -89.9231 42° Northeast 481 554 37,000  Level Memphis Center
10:46PM 36.1450 -89.8119 42° Northeast 481 554 37,000  Level Memphis Center
10:47PM 36.2486 -89.6981 42° Northeast 486 559 37,000  Level Memphis Center
10:48PM 36.3500 -89.5892 41° Northeast 486 559 37,000  Level Memphis Center
10:49PM 36.4328 -89.5006 41° Northeast 486 559 37,000  Level Memphis Center
10:50PM 36.5467 -89.3703 43° Northeast 492 566 37,000  Level Memphis Center
10:51PM 36.6478 -89.2528 43° Northeast 492 566 37,000  Level Memphis Center
10:52PM 36.7467 -89.1400 42° Northeast 487 560 37,000  Level Memphis Center
10:53PM 36.8475 -89.0244 43° Northeast 487 560 37,000  Level Memphis Center
10:54PM 36.9506 -88.9111 41° Northeast 487 560 37,000  Level Memphis Center
10:55PM 37.0492 -88.7947 43° Northeast 492 566 37,000  Level Memphis Center
10:56PM 37.1497 -88.6783 43° Northeast 487 560 37,000 -360 Level Memphis Center
10:57PM 37.2481 -88.5667 42° Northeast 487 560 36,300 -900 Descending Memphis Center
10:59PM 37.4550 -88.3192 43° Northeast 481 554 34,200 -1,080 Descending Indianapolis Center
11:00PM 37.5539 -88.2047 43° Northeast 479 551 33,100 -600 Descending Indianapolis Center
11:01PM 37.6519 -88.0892 43° Northeast 477 549 33,000 -60 Descending Indianapolis Center
11:02PM 37.7525 -87.9697 43° Northeast 488 562 33,000  Level Indianapolis Center
11:03PM 37.8511 -87.8528 43° Northeast 492 566 33,000  Level Indianapolis Center
11:04PM 37.9544 -87.7400 41° Northeast 490 564 33,000  Level Indianapolis Center
11:05PM 38.0731 -87.6572 29° Northeast 480 552 33,000 -600 Level Indianapolis Center
11:06PM 38.1906 -87.5722 30° Northeast 480 552 31,800 -2,040 Descending Indianapolis Center
11:07PM 38.3056 -87.4892 30° Northeast 471 542 29,000 -3,000 Descending Indianapolis Center
11:08PM 38.4197 -87.4069 29° Northeast 464 534 25,900 -3,000 Descending Indianapolis Center
11:09PM 38.5319 -87.3247 30° Northeast 460 529 23,000 -2,700 Descending Indianapolis Center
11:10PM 38.6406 -87.2453 30° Northeast 448 516 20,500 -2,520 Descending Indianapolis Center
11:11PM 38.7425 -87.1703 30° Northeast 426 490 18,000 -2,340 Descending Indianapolis Center
11:12PM 38.8417 -87.0978 30° Northeast 412 474 15,800 -2,340 Descending Indianapolis Center
11:13PM 38.9322 -87.0303 30° Northeast 385 443 13,400 -2,100 Descending Indianapolis Center
11:14PM 39.0200 -86.9656 30° Northeast 373 429 11,600 -1,200 Descending Indianapolis Center
11:15PM 39.1028 -86.9036 30° Northeast 357 411 11,000 -300 Descending Indianapolis Center
11:16PM 39.1731 -86.8475 32° Northeast 317 365 11,000  Level Indianapolis Center
11:17PM 39.2489 -86.7794 35° Northeast 319 367 11,000 -60 Level Indianapolis Center
11:18PM 39.3239 -86.7083 36° Northeast 327 376 10,900 -840 Descending Indianapolis Center
11:19PM 39.3858 -86.6489 37° Northeast 296 341 9,400 -1,500 Descending Indianapolis Center
11:20PM 39.4483 -86.5919 35° Northeast 280 322 7,900 -1,560 Descending Indianapolis Center
11:21PM 39.5089 -86.5408 33° Northeast 270 311 6,300 -1,560 Descending Indianapolis Center
11:22PM 39.5622 -86.4856 39° Northeast 256 295 4,800 -1,200 Descending Indianapolis Center
11:23PM 39.6039 -86.4294 46° Northeast 249 287 3,900 -900 Descending Indianapolis Center